createdAt,value
2023-08-10T00:09:47.581Z,12.21
2023-08-10T00:20:11.747Z,12.10
2023-08-10T00:30:28.857Z,12.05
2023-08-10T00:40:45.946Z,11.92
2023-08-10T00:50:50.658Z,11.93
2023-08-10T01:00:52.759Z,11.83
2023-08-10T01:11:11.393Z,11.77
2023-08-10T01:21:46.511Z,11.49
2023-08-10T01:31:49.603Z,11.38
2023-08-10T01:41:53.351Z,11.21
2023-08-10T01:52:00.633Z,11.23
2023-08-10T02:02:16.913Z,11.31
2023-08-10T02:12:18.853Z,11.16
2023-08-10T02:22:23.443Z,10.94
2023-08-10T02:32:31.400Z,10.94
2023-08-10T02:42:35.466Z,10.70
2023-08-10T02:52:37.471Z,10.73
2023-08-10T03:02:45.874Z,10.38
2023-08-10T03:12:47.962Z,10.49
2023-08-10T03:22:57.021Z,10.43
2023-08-10T03:33:01.079Z,10.22
2023-08-10T03:43:03.067Z,10.42
2023-08-10T03:53:05.197Z,10.92
2023-08-10T04:03:07.277Z,10.89
2023-08-10T04:13:09.326Z,11.19
2023-08-10T04:23:12.139Z,11.79
2023-08-10T04:33:15.305Z,12.51
2023-08-10T04:43:18.333Z,12.57
2023-08-10T04:53:24.326Z,12.73
2023-08-10T05:03:26.337Z,12.95
2023-08-10T05:13:28.394Z,13.51
2023-08-10T05:23:30.441Z,14.92
2023-08-10T05:33:34.949Z,16.34
2023-08-10T05:43:48.810Z,16.96
2023-08-10T05:54:04.295Z,16.09
2023-08-10T06:04:14.937Z,15.91
2023-08-10T06:14:16.970Z,16.28
2023-08-10T06:24:31.006Z,17.22
2023-08-10T06:34:35.848Z,18.19
2023-08-10T06:44:37.940Z,18.66
2023-08-10T06:54:41.998Z,19.07
2023-08-10T07:04:45.791Z,19.43
2023-08-10T07:14:53.623Z,19.47
2023-08-10T07:24:57.660Z,19.85
2023-08-10T07:34:59.848Z,19.65
2023-08-10T07:45:07.373Z,20.57
2023-08-10T07:55:09.753Z,21.75
2023-08-10T08:05:19.405Z,22.05
2023-08-10T08:15:22.715Z,22.26
2023-08-10T08:25:30.823Z,21.52
2023-08-10T08:35:32.965Z,22.83
2023-08-10T08:45:38.531Z,22.86
2023-08-10T08:55:41.780Z,23.50
2023-08-10T09:05:46.682Z,23.78
2023-08-10T09:16:15.834Z,24.16
2023-08-10T09:26:19.820Z,23.56
2023-08-10T09:36:26.884Z,23.87
2023-08-10T09:46:30.803Z,23.38
2023-08-10T09:56:33.481Z,22.97
2023-08-10T10:06:39.142Z,23.77
2023-08-10T10:16:42.568Z,22.02
2023-08-10T10:27:03.580Z,21.73
2023-08-10T10:37:21.833Z,21.94
2023-08-10T10:47:35.038Z,22.84
2023-08-10T10:57:40.249Z,21.99
2023-08-10T11:07:49.093Z,22.88
2023-08-10T11:17:58.841Z,22.29
2023-08-10T11:28:02.074Z,21.23
2023-08-10T11:38:04.255Z,22.18
2023-08-10T11:48:12.667Z,21.90
2023-08-10T11:58:17.026Z,22.54
2023-08-10T12:08:21.308Z,22.49
2023-08-10T12:18:24.576Z,22.53
2023-08-10T12:28:27.836Z,22.10
2023-08-10T12:38:31.893Z,22.52
2023-08-10T12:48:33.949Z,21.93
2023-08-10T12:58:38.025Z,22.62
2023-08-10T13:08:40.093Z,22.17
2023-08-10T13:18:47.234Z,22.24
2023-08-10T13:28:50.186Z,22.08
2023-08-10T13:38:52.293Z,22.52
2023-08-10T13:48:54.738Z,22.34
2023-08-10T13:59:10.257Z,22.18
2023-08-10T14:09:12.409Z,22.16
2023-08-10T14:19:16.745Z,22.36
2023-08-10T14:29:18.837Z,21.37
2023-08-10T14:39:21.893Z,21.17
2023-08-10T14:49:25.891Z,21.23
2023-08-10T14:59:27.941Z,21.08
2023-08-10T15:09:30.983Z,21.10
2023-08-10T15:19:34.390Z,21.38
2023-08-10T15:29:36.479Z,21.58
2023-08-10T15:39:43.895Z,21.59
2023-08-10T15:49:45.841Z,21.51
2023-08-10T15:59:48.489Z,21.64
2023-08-10T16:10:17.282Z,21.53
2023-08-10T16:20:28.645Z,21.36
2023-08-10T16:30:32.048Z,21.41
2023-08-10T16:40:34.026Z,21.45
2023-08-10T16:50:38.158Z,21.32
2023-08-10T17:00:40.978Z,21.15
2023-08-10T17:10:46.028Z,20.84
2023-08-10T17:20:50.033Z,20.40
2023-08-10T17:30:54.868Z,20.03
2023-08-10T17:40:57.052Z,19.67
2023-08-10T17:51:01.439Z,19.50
2023-08-10T18:01:08.863Z,18.97
2023-08-10T18:11:13.256Z,18.29
2023-08-10T18:21:15.614Z,17.74
2023-08-10T18:31:18.853Z,17.14
2023-08-10T18:41:30.594Z,16.30
2023-08-10T18:51:33.340Z,16.44
2023-08-10T19:01:38.774Z,15.99
2023-08-10T19:11:41.413Z,15.98
2023-08-10T19:21:43.686Z,15.75
2023-08-10T19:31:48.558Z,15.43
2023-08-10T19:41:53.610Z,15.15
2023-08-10T19:51:56.561Z,14.97
2023-08-10T20:02:01.489Z,14.89
2023-08-10T20:12:05.655Z,14.98
2023-08-10T20:22:10.072Z,14.60
2023-08-10T20:32:12.369Z,14.37
2023-08-10T20:42:15.085Z,14.11
2023-08-10T20:52:18.068Z,13.90
2023-08-10T21:02:22.352Z,13.90
2023-08-10T21:12:27.549Z,13.51
2023-08-10T21:22:29.644Z,13.53
2023-08-10T21:32:40.687Z,13.63
2023-08-10T21:42:44.724Z,13.21
2023-08-10T21:52:59.790Z,13.07
2023-08-10T22:03:10.714Z,13.29
2023-08-10T22:13:15.408Z,13.15
2023-08-10T22:23:37.947Z,12.61
2023-08-10T22:33:40.142Z,12.80
2023-08-10T22:43:51.910Z,12.40
2023-08-10T22:53:53.929Z,12.36
2023-08-10T23:03:55.875Z,12.23
2023-08-10T23:13:57.841Z,12.25
2023-08-10T23:23:59.840Z,11.86
2023-08-10T23:34:11.121Z,11.81
2023-08-10T23:44:16.685Z,11.59
2023-08-10T23:54:18.618Z,11.60
